sensor_id;sensor_type;location;lat;lon;timestamp;temperature;humidity
22633;DHT22;11483;55.828;37.488;2022-12-18T00:01:44;-3.20;99.90
22633;DHT22;11483;55.828;37.488;2022-12-18T00:04:21;-3.20;99.90
22633;DHT22;11483;55.828;37.488;2022-12-18T00:06:47;-3.20;99.90
22633;DHT22;11483;55.828;37.488;2022-12-18T00:09:14;-3.20;99.90
22633;DHT22;11483;55.828;37.488;2022-12-18T00:11:40;-3.20;99.90
22633;DHT22;11483;55.828;37.488;2022-12-18T00:14:06;-3.30;99.90
22633;DHT22;11483;55.828;37.488;2022-12-18T00:16:31;-3.20;99.90
22633;DHT22;11483;55.828;37.488;2022-12-18T00:18:59;-3.20;99.90
22633;DHT22;11483;55.828;37.488;2022-12-18T00:21:26;-3.20;99.90
22633;DHT22;11483;55.828;37.488;2022-12-18T00:23:52;-3.10;99.90
22633;DHT22;11483;55.828;37.488;2022-12-18T00:26:21;-3.20;99.90
22633;DHT22;11483;55.828;37.488;2022-12-18T00:28:47;-3.20;99.90
22633;DHT22;11483;55.828;37.488;2022-12-18T00:31:17;-3.20;99.90
22633;DHT22;11483;55.828;37.488;2022-12-18T00:33:44;-3.30;99.90
22633;DHT22;11483;55.828;37.488;2022-12-18T00:38:37;-3.30;99.90
22633;DHT22;11483;55.828;37.488;2022-12-18T00:41:04;-3.30;99.90
22633;DHT22;11483;55.828;37.488;2022-12-18T00:43:30;-3.30;99.90
22633;DHT22;11483;55.828;37.488;2022-12-18T00:45:59;-3.30;99.90
22633;DHT22;11483;55.828;37.488;2022-12-18T00:48:25;-3.30;99.90
22633;DHT22;11483;55.828;37.488;2022-12-18T00:50:51;-3.30;99.90
22633;DHT22;11483;55.828;37.488;2022-12-18T00:53:17;-3.30;99.90
22633;DHT22;11483;55.828;37.488;2022-12-18T00:55:44;-3.30;99.90
22633;DHT22;11483;55.828;37.488;2022-12-18T00:58:11;-3.30;99.90
22633;DHT22;11483;55.828;37.488;2022-12-18T01:00:37;-3.30;99.90
22633;DHT22;11483;55.828;37.488;2022-12-18T01:03:04;-3.30;99.90
22633;DHT22;11483;55.828;37.488;2022-12-18T01:05:30;-3.30;99.90
22633;DHT22;11483;55.828;37.488;2022-12-18T01:07:57;-3.30;99.90
22633;DHT22;11483;55.828;37.488;2022-12-18T01:10:24;-3.30;99.90
22633;DHT22;11483;55.828;37.488;2022-12-18T01:12:51;-3.30;99.90
22633;DHT22;11483;55.828;37.488;2022-12-18T01:15:17;-3.30;99.90
22633;DHT22;11483;55.828;37.488;2022-12-18T01:17:43;-3.30;99.90
22633;DHT22;11483;55.828;37.488;2022-12-18T01:20:11;-3.30;99.90
22633;DHT22;11483;55.828;37.488;2022-12-18T01:22:38;-3.30;99.90
22633;DHT22;11483;55.828;37.488;2022-12-18T01:25:04;-3.30;99.90
22633;DHT22;11483;55.828;37.488;2022-12-18T01:27:32;-3.30;99.90
22633;DHT22;11483;55.828;37.488;2022-12-18T01:29:58;-3.30;99.90
22633;DHT22;11483;55.828;37.488;2022-12-18T01:32:24;-3.30;99.90
22633;DHT22;11483;55.828;37.488;2022-12-18T01:34:50;-3.20;99.90
22633;DHT22;11483;55.828;37.488;2022-12-18T01:37:16;-3.30;99.90
22633;DHT22;11483;55.828;37.488;2022-12-18T01:39:42;-3.20;99.90
22633;DHT22;11483;55.828;37.488;2022-12-18T01:42:12;-3.30;99.90
22633;DHT22;11483;55.828;37.488;2022-12-18T01:49:51;-3.40;99.90
22633;DHT22;11483;55.828;37.488;2022-12-18T01:52:17;-3.30;99.90
22633;DHT22;11483;55.828;37.488;2022-12-18T01:54:45;-3.40;99.90
22633;DHT22;11483;55.828;37.488;2022-12-18T01:57:11;-3.50;99.90
22633;DHT22;11483;55.828;37.488;2022-12-18T01:59:39;-3.40;99.90
22633;DHT22;11483;55.828;37.488;2022-12-18T02:02:07;-3.40;99.90
22633;DHT22;11483;55.828;37.488;2022-12-18T02:04:33;-3.40;99.90
22633;DHT22;11483;55.828;37.488;2022-12-18T02:09:40;-3.30;99.90
22633;DHT22;11483;55.828;37.488;2022-12-18T02:12:20;-3.30;99.90
22633;DHT22;11483;55.828;37.488;2022-12-18T02:14:59;-3.30;99.90
22633;DHT22;11483;55.828;37.488;2022-12-18T02:17:40;-3.30;99.90
22633;DHT22;11483;55.828;37.488;2022-12-18T02:27:54;-3.40;99.90
22633;DHT22;11483;55.828;37.488;2022-12-18T02:30:22;-3.40;99.90
22633;DHT22;11483;55.828;37.488;2022-12-18T02:32:52;-3.40;99.90
22633;DHT22;11483;55.828;37.488;2022-12-18T02:35:25;-3.40;99.90
22633;DHT22;11483;55.828;37.488;2022-12-18T02:37:54;-3.40;99.90
22633;DHT22;11483;55.828;37.488;2022-12-18T02:40:23;-3.40;99.90
22633;DHT22;11483;55.828;37.488;2022-12-18T02:42:50;-3.30;99.90
22633;DHT22;11483;55.828;37.488;2022-12-18T02:45:16;-3.30;99.90
22633;DHT22;11483;55.828;37.488;2022-12-18T02:47:44;-3.30;99.90
22633;DHT22;11483;55.828;37.488;2022-12-18T02:53:26;-3.40;99.90
22633;DHT22;11483;55.828;37.488;2022-12-18T02:56:09;-3.30;99.90
22633;DHT22;11483;55.828;37.488;2022-12-18T02:58:44;-3.40;99.90
22633;DHT22;11483;55.828;37.488;2022-12-18T03:04:07;-3.30;99.90
22633;DHT22;11483;55.828;37.488;2022-12-18T03:06:40;-3.40;99.90
22633;DHT22;11483;55.828;37.488;2022-12-18T03:09:12;-3.40;99.90
22633;DHT22;11483;55.828;37.488;2022-12-18T03:11:42;-3.50;99.90
22633;DHT22;11483;55.828;37.488;2022-12-18T03:14:30;-3.50;99.90
22633;DHT22;11483;55.828;37.488;2022-12-18T03:17:01;-3.50;99.90
22633;DHT22;11483;55.828;37.488;2022-12-18T03:19:29;-3.50;99.90
22633;DHT22;11483;55.828;37.488;2022-12-18T03:21:58;-3.50;99.90
22633;DHT22;11483;55.828;37.488;2022-12-18T03:24:28;-3.60;99.90
22633;DHT22;11483;55.828;37.488;2022-12-18T03:27:01;-3.60;99.90
22633;DHT22;11483;55.828;37.488;2022-12-18T03:32:04;-3.50;99.90
22633;DHT22;11483;55.828;37.488;2022-12-18T03:34:34;-3.50;99.90
22633;DHT22;11483;55.828;37.488;2022-12-18T03:37:02;-3.50;99.90
22633;DHT22;11483;55.828;37.488;2022-12-18T03:39:28;-3.60;99.90
22633;DHT22;11483;55.828;37.488;2022-12-18T03:42:15;-3.50;99.90
22633;DHT22;11483;55.828;37.488;2022-12-18T03:45:03;-3.60;99.90
22633;DHT22;11483;55.828;37.488;2022-12-18T03:50:56;-3.60;99.90
22633;DHT22;11483;55.828;37.488;2022-12-18T03:53:34;-3.60;99.90
22633;DHT22;11483;55.828;37.488;2022-12-18T03:56:02;-3.60;99.90
22633;DHT22;11483;55.828;37.488;2022-12-18T03:58:32;-3.60;99.90
22633;DHT22;11483;55.828;37.488;2022-12-18T04:01:02;-3.60;99.90
22633;DHT22;11483;55.828;37.488;2022-12-18T04:03:31;-3.70;99.90
22633;DHT22;11483;55.828;37.488;2022-12-18T04:05:59;-3.70;99.90
22633;DHT22;11483;55.828;37.488;2022-12-18T04:08:25;-3.70;99.90
22633;DHT22;11483;55.828;37.488;2022-12-18T04:10:51;-3.80;99.90
22633;DHT22;11483;55.828;37.488;2022-12-18T04:13:27;-3.70;99.90
22633;DHT22;11483;55.828;37.488;2022-12-18T04:15:54;-3.70;99.90
22633;DHT22;11483;55.828;37.488;2022-12-18T04:18:20;-3.80;99.90
22633;DHT22;11483;55.828;37.488;2022-12-18T04:20:48;-3.80;99.90
22633;DHT22;11483;55.828;37.488;2022-12-18T04:23:14;-3.80;99.90
22633;DHT22;11483;55.828;37.488;2022-12-18T04:25:40;-3.80;99.90
22633;DHT22;11483;55.828;37.488;2022-12-18T04:28:06;-3.80;99.90
22633;DHT22;11483;55.828;37.488;2022-12-18T04:30:32;-3.80;99.90
22633;DHT22;11483;55.828;37.488;2022-12-18T04:32:58;-3.80;99.90
22633;DHT22;11483;55.828;37.488;2022-12-18T04:35:24;-3.80;99.90
22633;DHT22;11483;55.828;37.488;2022-12-18T04:37:49;-3.80;99.90
22633;DHT22;11483;55.828;37.488;2022-12-18T04:40:15;-3.80;99.90
22633;DHT22;11483;55.828;37.488;2022-12-18T04:42:41;-3.80;99.90
22633;DHT22;11483;55.828;37.488;2022-12-18T04:45:08;-3.80;99.90
22633;DHT22;11483;55.828;37.488;2022-12-18T04:47:34;-3.80;99.90
22633;DHT22;11483;55.828;37.488;2022-12-18T04:50:00;-3.80;99.90
22633;DHT22;11483;55.828;37.488;2022-12-18T04:52:26;-3.80;99.90
22633;DHT22;11483;55.828;37.488;2022-12-18T04:54:52;-3.80;99.90
22633;DHT22;11483;55.828;37.488;2022-12-18T04:57:17;-3.80;99.90
22633;DHT22;11483;55.828;37.488;2022-12-18T04:59:44;-3.80;99.90
22633;DHT22;11483;55.828;37.488;2022-12-18T05:02:10;-3.80;99.90
22633;DHT22;11483;55.828;37.488;2022-12-18T05:04:36;-3.90;99.90
22633;DHT22;11483;55.828;37.488;2022-12-18T05:07:02;-3.90;99.90
22633;DHT22;11483;55.828;37.488;2022-12-18T05:09:28;-3.90;99.90
22633;DHT22;11483;55.828;37.488;2022-12-18T05:11:57;-3.90;99.90
22633;DHT22;11483;55.828;37.488;2022-12-18T05:14:22;-3.90;99.90
22633;DHT22;11483;55.828;37.488;2022-12-18T05:16:48;-3.90;99.90
22633;DHT22;11483;55.828;37.488;2022-12-18T05:19:14;-3.90;99.90
22633;DHT22;11483;55.828;37.488;2022-12-18T05:21:40;-3.90;99.90
22633;DHT22;11483;55.828;37.488;2022-12-18T05:24:06;-3.90;99.90
22633;DHT22;11483;55.828;37.488;2022-12-18T05:26:32;-3.90;99.90
22633;DHT22;11483;55.828;37.488;2022-12-18T05:28:58;-3.90;99.90
22633;DHT22;11483;55.828;37.488;2022-12-18T05:31:24;-4.00;99.90
22633;DHT22;11483;55.828;37.488;2022-12-18T05:33:49;-4.00;99.90
22633;DHT22;11483;55.828;37.488;2022-12-18T05:36:15;-4.00;99.90
22633;DHT22;11483;55.828;37.488;2022-12-18T05:38:41;-4.00;99.90
22633;DHT22;11483;55.828;37.488;2022-12-18T05:41:08;-4.10;99.90
22633;DHT22;11483;55.828;37.488;2022-12-18T05:43:36;-4.00;99.90
22633;DHT22;11483;55.828;37.488;2022-12-18T05:46:06;-4.00;99.90
22633;DHT22;11483;55.828;37.488;2022-12-18T05:48:32;-4.10;99.90
22633;DHT22;11483;55.828;37.488;2022-12-18T05:51:05;-4.10;99.90
22633;DHT22;11483;55.828;37.488;2022-12-18T05:53:31;-4.20;99.90
22633;DHT22;11483;55.828;37.488;2022-12-18T05:56:01;-4.10;99.90
22633;DHT22;11483;55.828;37.488;2022-12-18T05:58:27;-4.20;99.90
22633;DHT22;11483;55.828;37.488;2022-12-18T06:00:53;-4.10;99.90
22633;DHT22;11483;55.828;37.488;2022-12-18T06:03:18;-4.20;99.90
22633;DHT22;11483;55.828;37.488;2022-12-18T06:05:45;-4.10;99.90
22633;DHT22;11483;55.828;37.488;2022-12-18T06:08:12;-4.10;99.90
22633;DHT22;11483;55.828;37.488;2022-12-18T06:10:39;-4.00;99.90
22633;DHT22;11483;55.828;37.488;2022-12-18T06:13:05;-4.00;99.90
22633;DHT22;11483;55.828;37.488;2022-12-18T06:15:31;-4.10;99.90
22633;DHT22;11483;55.828;37.488;2022-12-18T06:17:57;-4.10;99.90
22633;DHT22;11483;55.828;37.488;2022-12-18T06:20:23;-4.00;99.90
22633;DHT22;11483;55.828;37.488;2022-12-18T06:22:49;-4.00;99.90
22633;DHT22;11483;55.828;37.488;2022-12-18T06:25:15;-4.10;99.90
22633;DHT22;11483;55.828;37.488;2022-12-18T06:27:41;-4.00;99.90
22633;DHT22;11483;55.828;37.488;2022-12-18T06:30:08;-4.00;99.90
22633;DHT22;11483;55.828;37.488;2022-12-18T06:32:34;-4.00;99.90
22633;DHT22;11483;55.828;37.488;2022-12-18T06:35:00;-4.00;99.90
22633;DHT22;11483;55.828;37.488;2022-12-18T06:37:26;-4.00;99.90
22633;DHT22;11483;55.828;37.488;2022-12-18T06:39:53;-4.00;99.90
22633;DHT22;11483;55.828;37.488;2022-12-18T06:42:19;-4.10;99.90
22633;DHT22;11483;55.828;37.488;2022-12-18T06:44:47;-4.00;99.90
22633;DHT22;11483;55.828;37.488;2022-12-18T06:47:13;-4.00;99.90
22633;DHT22;11483;55.828;37.488;2022-12-18T06:49:39;-4.00;99.90
22633;DHT22;11483;55.828;37.488;2022-12-18T06:52:05;-4.00;99.90
22633;DHT22;11483;55.828;37.488;2022-12-18T06:54:31;-4.00;99.90
22633;DHT22;11483;55.828;37.488;2022-12-18T06:56:56;-4.00;99.90
22633;DHT22;11483;55.828;37.488;2022-12-18T06:59:22;-3.90;99.90
22633;DHT22;11483;55.828;37.488;2022-12-18T07:01:48;-4.00;99.90
22633;DHT22;11483;55.828;37.488;2022-12-18T07:04:14;-3.90;99.90
22633;DHT22;11483;55.828;37.488;2022-12-18T07:06:40;-3.90;99.90
22633;DHT22;11483;55.828;37.488;2022-12-18T07:09:06;-3.90;99.90
22633;DHT22;11483;55.828;37.488;2022-12-18T07:11:35;-3.90;99.90
22633;DHT22;11483;55.828;37.488;2022-12-18T07:14:01;-3.90;99.90
22633;DHT22;11483;55.828;37.488;2022-12-18T07:16:27;-3.90;99.90
22633;DHT22;11483;55.828;37.488;2022-12-18T07:18:56;-3.80;99.90
22633;DHT22;11483;55.828;37.488;2022-12-18T07:21:23;-3.80;99.90
22633;DHT22;11483;55.828;37.488;2022-12-18T07:23:49;-3.80;99.90
22633;DHT22;11483;55.828;37.488;2022-12-18T07:26:17;-3.80;99.90
22633;DHT22;11483;55.828;37.488;2022-12-18T07:28:43;-3.80;99.90
22633;DHT22;11483;55.828;37.488;2022-12-18T07:31:12;-3.80;99.90
22633;DHT22;11483;55.828;37.488;2022-12-18T07:33:38;-3.70;99.90
22633;DHT22;11483;55.828;37.488;2022-12-18T07:36:06;-3.70;99.90
22633;DHT22;11483;55.828;37.488;2022-12-18T07:38:33;-3.70;99.90
22633;DHT22;11483;55.828;37.488;2022-12-18T07:41:03;-3.70;99.90
22633;DHT22;11483;55.828;37.488;2022-12-18T07:43:29;-3.70;99.90
22633;DHT22;11483;55.828;37.488;2022-12-18T07:45:55;-3.70;99.90
22633;DHT22;11483;55.828;37.488;2022-12-18T07:48:21;-3.50;99.90
22633;DHT22;11483;55.828;37.488;2022-12-18T07:50:47;-3.50;99.90
22633;DHT22;11483;55.828;37.488;2022-12-18T07:53:13;-3.40;99.90
22633;DHT22;11483;55.828;37.488;2022-12-18T07:55:40;-3.30;99.90
22633;DHT22;11483;55.828;37.488;2022-12-18T07:58:06;-3.30;99.90
22633;DHT22;11483;55.828;37.488;2022-12-18T08:00:33;-3.30;99.90
22633;DHT22;11483;55.828;37.488;2022-12-18T08:02:59;-3.40;99.90
22633;DHT22;11483;55.828;37.488;2022-12-18T08:05:25;-3.40;99.90
22633;DHT22;11483;55.828;37.488;2022-12-18T08:07:51;-3.50;99.90
22633;DHT22;11483;55.828;37.488;2022-12-18T08:10:18;-3.50;99.90
22633;DHT22;11483;55.828;37.488;2022-12-18T08:12:44;-3.50;99.90
22633;DHT22;11483;55.828;37.488;2022-12-18T08:15:10;-3.50;99.90
22633;DHT22;11483;55.828;37.488;2022-12-18T08:17:35;-3.40;99.90
22633;DHT22;11483;55.828;37.488;2022-12-18T08:20:01;-3.40;99.90
22633;DHT22;11483;55.828;37.488;2022-12-18T08:22:27;-3.10;99.90
22633;DHT22;11483;55.828;37.488;2022-12-18T08:24:53;-3.40;99.90
22633;DHT22;11483;55.828;37.488;2022-12-18T08:27:19;-3.40;99.90
22633;DHT22;11483;55.828;37.488;2022-12-18T08:29:45;-3.40;99.90
22633;DHT22;11483;55.828;37.488;2022-12-18T08:32:11;-3.40;99.90
22633;DHT22;11483;55.828;37.488;2022-12-18T08:34:37;-3.40;99.90
22633;DHT22;11483;55.828;37.488;2022-12-18T08:37:03;-3.40;99.90
22633;DHT22;11483;55.828;37.488;2022-12-18T08:39:29;-3.40;99.90
22633;DHT22;11483;55.828;37.488;2022-12-18T08:41:55;-3.30;99.90
22633;DHT22;11483;55.828;37.488;2022-12-18T08:44:39;-3.30;99.90
22633;DHT22;11483;55.828;37.488;2022-12-18T08:47:06;-3.20;99.90
22633;DHT22;11483;55.828;37.488;2022-12-18T08:49:33;-3.30;99.90
22633;DHT22;11483;55.828;37.488;2022-12-18T08:51:59;-3.30;99.90
22633;DHT22;11483;55.828;37.488;2022-12-18T08:54:25;-3.20;99.90
22633;DHT22;11483;55.828;37.488;2022-12-18T08:56:52;-3.20;99.90
22633;DHT22;11483;55.828;37.488;2022-12-18T08:59:19;-3.20;99.90
22633;DHT22;11483;55.828;37.488;2022-12-18T09:01:46;-3.10;99.90
22633;DHT22;11483;55.828;37.488;2022-12-18T09:04:13;-3.10;99.90
22633;DHT22;11483;55.828;37.488;2022-12-18T09:06:39;-3.00;99.90
22633;DHT22;11483;55.828;37.488;2022-12-18T09:09:06;-2.90;99.90
22633;DHT22;11483;55.828;37.488;2022-12-18T09:11:32;-2.90;99.90
22633;DHT22;11483;55.828;37.488;2022-12-18T09:14:00;-2.90;99.90
22633;DHT22;11483;55.828;37.488;2022-12-18T09:16:27;-2.90;99.90
22633;DHT22;11483;55.828;37.488;2022-12-18T09:18:59;-3.70;99.90
22633;DHT22;11483;55.828;37.488;2022-12-18T09:21:27;-2.90;99.90
22633;DHT22;11483;55.828;37.488;2022-12-18T09:23:58;-3.10;99.90
22633;DHT22;11483;55.828;37.488;2022-12-18T09:26:25;-2.90;99.90
22633;DHT22;11483;55.828;37.488;2022-12-18T09:28:51;-2.80;99.90
22633;DHT22;11483;55.828;37.488;2022-12-18T09:31:19;-2.80;99.90
22633;DHT22;11483;55.828;37.488;2022-12-18T09:33:46;-2.90;99.90
22633;DHT22;11483;55.828;37.488;2022-12-18T09:36:14;-2.90;99.90
22633;DHT22;11483;55.828;37.488;2022-12-18T09:38:40;-2.80;99.90
22633;DHT22;11483;55.828;37.488;2022-12-18T09:44:21;-2.80;99.90
22633;DHT22;11483;55.828;37.488;2022-12-18T09:46:54;-2.80;99.90
22633;DHT22;11483;55.828;37.488;2022-12-18T09:49:26;-2.90;99.90
22633;DHT22;11483;55.828;37.488;2022-12-18T09:52:11;-2.90;99.90
22633;DHT22;11483;55.828;37.488;2022-12-18T09:54:39;-2.90;99.90
22633;DHT22;11483;55.828;37.488;2022-12-18T09:57:18;-2.90;99.90
22633;DHT22;11483;55.828;37.488;2022-12-18T10:00:14;-2.90;99.90
22633;DHT22;11483;55.828;37.488;2022-12-18T10:02:34;-3.00;99.90
22633;DHT22;11483;55.828;37.488;2022-12-18T10:05:07;-3.00;99.90
22633;DHT22;11483;55.828;37.488;2022-12-18T10:07:47;-3.00;99.90
22633;DHT22;11483;55.828;37.488;2022-12-18T10:13:38;-3.10;99.90
22633;DHT22;11483;55.828;37.488;2022-12-18T10:21:34;-3.10;99.90
22633;DHT22;11483;55.828;37.488;2022-12-18T10:24:13;-3.20;99.90
22633;DHT22;11483;55.828;37.488;2022-12-18T10:26:42;-3.10;99.90
22633;DHT22;11483;55.828;37.488;2022-12-18T10:29:12;-3.20;99.90
22633;DHT22;11483;55.828;37.488;2022-12-18T10:31:39;-3.40;99.90
22633;DHT22;11483;55.828;37.488;2022-12-18T10:34:11;-3.20;99.90
22633;DHT22;11483;55.828;37.488;2022-12-18T10:36:42;-3.10;99.90
22633;DHT22;11483;55.828;37.488;2022-12-18T10:39:23;-3.10;99.90
22633;DHT22;11483;55.828;37.488;2022-12-18T10:41:49;-3.10;99.90
22633;DHT22;11483;55.828;37.488;2022-12-18T10:46:48;-3.30;99.90
22633;DHT22;11483;55.828;37.488;2022-12-18T10:49:27;-3.30;99.90
22633;DHT22;11483;55.828;37.488;2022-12-18T10:52:12;-3.30;99.90
22633;DHT22;11483;55.828;37.488;2022-12-18T10:54:39;-3.30;99.90
22633;DHT22;11483;55.828;37.488;2022-12-18T11:00:23;-3.40;99.90
22633;DHT22;11483;55.828;37.488;2022-12-18T11:02:50;-3.40;99.90
22633;DHT22;11483;55.828;37.488;2022-12-18T11:05:32;-3.40;99.90
22633;DHT22;11483;55.828;37.488;2022-12-18T11:08:00;-3.50;99.90
22633;DHT22;11483;55.828;37.488;2022-12-18T11:10:37;-3.40;99.90
22633;DHT22;11483;55.828;37.488;2022-12-18T11:13:30;-3.50;99.90
22633;DHT22;11483;55.828;37.488;2022-12-18T11:15:57;-3.50;99.90
22633;DHT22;11483;55.828;37.488;2022-12-18T11:18:28;-3.40;99.90
22633;DHT22;11483;55.828;37.488;2022-12-18T11:21:00;-3.40;99.90
22633;DHT22;11483;55.828;37.488;2022-12-18T11:23:27;-3.40;99.90
22633;DHT22;11483;55.828;37.488;2022-12-18T11:25:58;-3.40;99.90
22633;DHT22;11483;55.828;37.488;2022-12-18T11:28:35;-3.50;99.90
22633;DHT22;11483;55.828;37.488;2022-12-18T11:31:28;-3.50;99.90
22633;DHT22;11483;55.828;37.488;2022-12-18T11:36:33;-3.40;99.90
22633;DHT22;11483;55.828;37.488;2022-12-18T11:39:07;-3.40;99.90
22633;DHT22;11483;55.828;37.488;2022-12-18T11:41:49;-3.40;99.90
22633;DHT22;11483;55.828;37.488;2022-12-18T11:44:51;-3.40;99.90
22633;DHT22;11483;55.828;37.488;2022-12-18T11:49:52;-3.40;99.90
22633;DHT22;11483;55.828;37.488;2022-12-18T11:52:26;-3.40;99.90
22633;DHT22;11483;55.828;37.488;2022-12-18T11:54:57;-3.50;99.90
22633;DHT22;11483;55.828;37.488;2022-12-18T12:00:20;-3.40;99.90
22633;DHT22;11483;55.828;37.488;2022-12-18T12:16:28;-3.40;99.90
22633;DHT22;11483;55.828;37.488;2022-12-18T12:19:02;-3.40;99.90
22633;DHT22;11483;55.828;37.488;2022-12-18T12:21:58;-3.40;99.90
22633;DHT22;11483;55.828;37.488;2022-12-18T12:27:47;-3.40;99.90
22633;DHT22;11483;55.828;37.488;2022-12-18T12:33:31;-3.50;99.90
22633;DHT22;11483;55.828;37.488;2022-12-18T12:38:33;-3.50;99.90
22633;DHT22;11483;55.828;37.488;2022-12-18T12:41:06;-3.50;99.90
22633;DHT22;11483;55.828;37.488;2022-12-18T12:43:56;-3.50;99.90
22633;DHT22;11483;55.828;37.488;2022-12-18T12:46:22;-3.40;99.90
22633;DHT22;11483;55.828;37.488;2022-12-18T12:48:58;-3.50;99.90
22633;DHT22;11483;55.828;37.488;2022-12-18T12:51:32;-3.50;99.90
22633;DHT22;11483;55.828;37.488;2022-12-18T12:54:01;-3.40;99.90
22633;DHT22;11483;55.828;37.488;2022-12-18T12:56:47;-3.50;99.90
22633;DHT22;11483;55.828;37.488;2022-12-18T12:59:38;-3.50;99.90
22633;DHT22;11483;55.828;37.488;2022-12-18T13:08:07;-3.50;99.90
22633;DHT22;11483;55.828;37.488;2022-12-18T13:10:39;-3.50;99.90
22633;DHT22;11483;55.828;37.488;2022-12-18T13:13:08;-3.40;99.90
22633;DHT22;11483;55.828;37.488;2022-12-18T13:16:08;-3.40;99.90
22633;DHT22;11483;55.828;37.488;2022-12-18T13:18:36;-3.40;99.90
22633;DHT22;11483;55.828;37.488;2022-12-18T13:21:04;-3.40;99.90
22633;DHT22;11483;55.828;37.488;2022-12-18T13:23:36;-3.40;99.90
22633;DHT22;11483;55.828;37.488;2022-12-18T13:32:00;-3.30;99.90
22633;DHT22;11483;55.828;37.488;2022-12-18T13:34:23;-3.30;99.90
22633;DHT22;11483;55.828;37.488;2022-12-18T13:36:50;-3.40;99.90
22633;DHT22;11483;55.828;37.488;2022-12-18T13:41:53;-3.50;99.90
22633;DHT22;11483;55.828;37.488;2022-12-18T13:44:58;-3.50;99.90
22633;DHT22;11483;55.828;37.488;2022-12-18T13:47:37;-3.50;99.90
22633;DHT22;11483;55.828;37.488;2022-12-18T13:50:20;-3.40;99.90
22633;DHT22;11483;55.828;37.488;2022-12-18T13:52:51;-3.60;99.90
22633;DHT22;11483;55.828;37.488;2022-12-18T13:55:19;-3.60;99.90
22633;DHT22;11483;55.828;37.488;2022-12-18T13:57:46;-3.60;99.90
22633;DHT22;11483;55.828;37.488;2022-12-18T14:00:29;-3.60;99.90
22633;DHT22;11483;55.828;37.488;2022-12-18T14:02:56;-3.60;99.90
22633;DHT22;11483;55.828;37.488;2022-12-18T14:05:29;-3.70;99.90
22633;DHT22;11483;55.828;37.488;2022-12-18T14:07:59;-3.70;99.90
22633;DHT22;11483;55.828;37.488;2022-12-18T14:10:26;-3.70;99.90
22633;DHT22;11483;55.828;37.488;2022-12-18T14:12:52;-3.70;99.90
22633;DHT22;11483;55.828;37.488;2022-12-18T14:18:33;-3.70;99.90
22633;DHT22;11483;55.828;37.488;2022-12-18T14:20:58;-3.70;99.90
22633;DHT22;11483;55.828;37.488;2022-12-18T14:23:39;-3.70;99.90
22633;DHT22;11483;55.828;37.488;2022-12-18T14:26:22;-3.70;99.90
22633;DHT22;11483;55.828;37.488;2022-12-18T14:28:48;-3.70;99.90
22633;DHT22;11483;55.828;37.488;2022-12-18T14:31:22;-3.70;99.90
22633;DHT22;11483;55.828;37.488;2022-12-18T14:33:48;-3.70;99.90
22633;DHT22;11483;55.828;37.488;2022-12-18T14:36:17;-3.80;99.90
22633;DHT22;11483;55.828;37.488;2022-12-18T14:38:52;-3.80;99.90
22633;DHT22;11483;55.828;37.488;2022-12-18T14:41:20;-3.90;99.90
22633;DHT22;11483;55.828;37.488;2022-12-18T14:43:49;-3.90;99.90
22633;DHT22;11483;55.828;37.488;2022-12-18T14:46:38;-3.90;99.90
22633;DHT22;11483;55.828;37.488;2022-12-18T14:49:14;-3.90;99.90
22633;DHT22;11483;55.828;37.488;2022-12-18T14:51:52;-4.10;99.90
22633;DHT22;11483;55.828;37.488;2022-12-18T14:54:20;-4.10;99.90
22633;DHT22;11483;55.828;37.488;2022-12-18T14:56:48;-4.10;99.90
22633;DHT22;11483;55.828;37.488;2022-12-18T14:59:25;-4.10;99.90
22633;DHT22;11483;55.828;37.488;2022-12-18T15:04:40;-4.10;99.90
22633;DHT22;11483;55.828;37.488;2022-12-18T15:07:16;-4.20;99.90
22633;DHT22;11483;55.828;37.488;2022-12-18T15:10:16;-4.20;99.90
22633;DHT22;11483;55.828;37.488;2022-12-18T15:12:44;-4.20;99.90
22633;DHT22;11483;55.828;37.488;2022-12-18T15:15:46;-4.10;99.90
22633;DHT22;11483;55.828;37.488;2022-12-18T15:18:15;-4.10;99.90
22633;DHT22;11483;55.828;37.488;2022-12-18T15:20:59;-4.10;99.90
22633;DHT22;11483;55.828;37.488;2022-12-18T15:26:08;-4.30;99.90
22633;DHT22;11483;55.828;37.488;2022-12-18T15:33:38;-4.40;99.90
22633;DHT22;11483;55.828;37.488;2022-12-18T15:36:08;-4.40;99.90
22633;DHT22;11483;55.828;37.488;2022-12-18T15:38:35;-4.50;99.90
22633;DHT22;11483;55.828;37.488;2022-12-18T15:41:02;-4.50;99.90
22633;DHT22;11483;55.828;37.488;2022-12-18T15:43:28;-4.60;99.90
22633;DHT22;11483;55.828;37.488;2022-12-18T15:46:05;-4.60;99.90
22633;DHT22;11483;55.828;37.488;2022-12-18T15:48:33;-4.70;99.90
22633;DHT22;11483;55.828;37.488;2022-12-18T15:51:00;-4.60;99.90
22633;DHT22;11483;55.828;37.488;2022-12-18T15:53:30;-4.70;99.90
22633;DHT22;11483;55.828;37.488;2022-12-18T15:55:57;-4.60;99.90
22633;DHT22;11483;55.828;37.488;2022-12-18T15:58:41;-4.60;99.90
22633;DHT22;11483;55.828;37.488;2022-12-18T16:01:09;-4.60;99.90
22633;DHT22;11483;55.828;37.488;2022-12-18T16:03:35;-4.50;99.90
22633;DHT22;11483;55.828;37.488;2022-12-18T16:06:01;-4.50;99.90
22633;DHT22;11483;55.828;37.488;2022-12-18T16:08:31;-4.60;99.90
22633;DHT22;11483;55.828;37.488;2022-12-18T16:10:58;-4.60;99.90
22633;DHT22;11483;55.828;37.488;2022-12-18T16:13:24;-4.70;99.90
22633;DHT22;11483;55.828;37.488;2022-12-18T16:15:50;-4.80;99.90
22633;DHT22;11483;55.828;37.488;2022-12-18T16:18:16;-4.90;99.90
22633;DHT22;11483;55.828;37.488;2022-12-18T16:20:41;-5.10;99.90
22633;DHT22;11483;55.828;37.488;2022-12-18T16:23:07;-5.10;99.90
22633;DHT22;11483;55.828;37.488;2022-12-18T16:25:33;-5.20;99.90
22633;DHT22;11483;55.828;37.488;2022-12-18T16:27:59;-5.30;99.90
22633;DHT22;11483;55.828;37.488;2022-12-18T16:30:27;-5.40;99.90
22633;DHT22;11483;55.828;37.488;2022-12-18T16:32:54;-5.30;99.90
22633;DHT22;11483;55.828;37.488;2022-12-18T16:35:20;-5.30;99.90
22633;DHT22;11483;55.828;37.488;2022-12-18T16:37:47;-5.10;99.90
22633;DHT22;11483;55.828;37.488;2022-12-18T16:40:14;-5.10;99.90
22633;DHT22;11483;55.828;37.488;2022-12-18T16:42:42;-5.20;99.90
22633;DHT22;11483;55.828;37.488;2022-12-18T16:45:11;-5.40;99.90
22633;DHT22;11483;55.828;37.488;2022-12-18T16:47:38;-5.50;99.90
22633;DHT22;11483;55.828;37.488;2022-12-18T16:50:04;-5.60;99.90
22633;DHT22;11483;55.828;37.488;2022-12-18T16:52:30;-5.80;99.90
22633;DHT22;11483;55.828;37.488;2022-12-18T16:54:56;-5.80;99.90
22633;DHT22;11483;55.828;37.488;2022-12-18T16:57:23;-5.90;99.90
22633;DHT22;11483;55.828;37.488;2022-12-18T16:59:49;-5.90;99.90
22633;DHT22;11483;55.828;37.488;2022-12-18T17:02:25;-5.90;99.90
22633;DHT22;11483;55.828;37.488;2022-12-18T17:04:56;-5.90;99.90
22633;DHT22;11483;55.828;37.488;2022-12-18T17:07:23;-6.10;99.90
22633;DHT22;11483;55.828;37.488;2022-12-18T17:09:48;-6.10;99.90
22633;DHT22;11483;55.828;37.488;2022-12-18T17:12:16;-6.20;99.90
22633;DHT22;11483;55.828;37.488;2022-12-18T17:14:42;-6.40;99.90
22633;DHT22;11483;55.828;37.488;2022-12-18T17:17:08;-6.40;99.90